Time;durP1;ratioP1;P1;durP2;ratioP2;P2;SDS_P1;SDS_P2;PMS_P1;PMS_P2;Temp;Humidity;BMP_temperature;BMP_pressure;BME280_temperature;BME280_humidity;BME280_pressure;Samples;Min_cycle;Max_cycle;Signal;HPM_P1;HPM_P2
2023/05/09 00:01:38;;;;;;;1999.90;999.90;;;;;;;11.15;100.00;95615.06;5008100;28;20195;-67
2023/05/09 00:04:04;;;;;;;1999.90;999.90;;;;;;;11.10;100.00;95612.78;5007577;28;20208;-67
2023/05/09 00:06:31;;;;;;;1999.90;999.90;;;;;;;11.05;100.00;95609.69;5007737;28;20194;-67
2023/05/09 00:08:56;;;;;;;1999.90;999.90;;;;;;;10.99;100.00;95611.28;5006669;28;20201;-68
2023/05/09 00:11:22;;;;;;;1999.90;999.90;;;;;;;10.98;100.00;95604.25;5007750;28;20197;-67
2023/05/09 00:13:49;;;;;;;1999.90;999.90;;;;;;;11.01;100.00;95600.75;5007548;28;20229;-68
2023/05/09 00:16:15;;;;;;;1999.90;999.90;;;;;;;11.30;100.00;95599.34;5007946;28;20175;-67
2023/05/09 00:18:41;;;;;;;1999.90;999.90;;;;;;;11.38;100.00;95596.16;5007252;28;20227;-67
2023/05/09 00:21:08;;;;;;;1999.90;999.90;;;;;;;11.41;100.00;95594.59;5007629;28;20204;-67
2023/05/09 00:23:34;;;;;;;1999.90;999.90;;;;;;;11.41;100.00;95602.78;5007423;28;20210;-67
2023/05/09 00:25:59;;;;;;;1999.90;999.90;;;;;;;11.39;100.00;95596.94;5007542;28;20229;-67
2023/05/09 00:28:25;;;;;;;1999.90;999.90;;;;;;;11.35;100.00;95596.97;5007493;28;20263;-67
2023/05/09 00:30:50;;;;;;;1999.90;999.90;;;;;;;11.33;100.00;95582.16;5007548;28;20209;-67
2023/05/09 00:33:15;;;;;;;1999.90;999.90;;;;;;;11.27;100.00;95594.69;5007234;28;20228;-67
2023/05/09 00:35:41;;;;;;;1999.90;999.90;;;;;;;11.26;100.00;95587.69;5007607;28;20197;-67
2023/05/09 00:38:06;;;;;;;1999.90;999.90;;;;;;;11.18;100.00;95577.97;5007571;28;20198;-67
2023/05/09 00:40:31;;;;;;;1999.90;999.90;;;;;;;11.14;100.00;95579.97;5007260;28;20210;-67
2023/05/09 00:43:00;;;;;;;1999.90;999.90;;;;;;;11.08;100.00;95576.09;5007160;28;20208;-67
2023/05/09 00:45:25;;;;;;;1999.90;999.90;;;;;;;11.08;100.00;95570.63;5007121;28;20203;-67
2023/05/09 00:47:51;;;;;;;1999.90;999.90;;;;;;;11.06;100.00;95564.78;5007682;28;20220;-67
2023/05/09 00:50:16;;;;;;;1999.90;999.90;;;;;;;11.02;100.00;95572.22;5007587;28;20210;-66
2023/05/09 00:52:42;;;;;;;1999.90;999.90;;;;;;;10.93;100.00;95563.72;5007069;28;20225;-67
2023/05/09 00:55:08;;;;;;;1999.90;999.90;;;;;;;10.68;100.00;95558.41;5007236;28;20210;-67
2023/05/09 00:57:34;;;;;;;1999.90;999.90;;;;;;;10.53;100.00;95550.69;5007369;28;20198;-66
2023/05/09 01:00:00;;;;;;;1999.90;999.90;;;;;;;10.49;100.00;95539.03;5007064;28;20200;-67
2023/05/09 01:02:26;;;;;;;1999.90;999.90;;;;;;;10.46;100.00;95531.63;5006953;28;20202;-67
2023/05/09 01:04:52;;;;;;;1999.90;999.90;;;;;;;10.43;100.00;95513.31;5007349;28;20202;-67
2023/05/09 01:07:20;;;;;;;1999.90;999.90;;;;;;;10.43;100.00;95511.38;5007044;28;20204;-67
2023/05/09 01:10:20;;;;;;;1999.90;999.90;;;;;;;10.35;100.00;95495.41;5007315;28;20220;-67
2023/05/09 01:12:53;;;;;;;1999.90;999.90;;;;;;;10.35;100.00;95484.50;4999623;28;20299;-67
2023/05/09 01:15:35;;;;;;;1999.90;999.90;;;;;;;10.29;100.00;95469.72;5007191;28;20202;-67
2023/05/09 01:18:28;;;;;;;1999.90;999.90;;;;;;;10.29;100.00;95458.78;5007415;28;20228;-66
2023/05/09 01:21:23;;;;;;;1999.90;999.90;;;;;;;10.24;100.00;95445.56;5010680;28;20244;-68
2023/05/09 01:24:16;;;;;;;1999.90;999.90;;;;;;;10.20;100.00;95428.44;4997671;28;20221;-67
2023/05/09 01:27:19;;;;;;;1999.90;999.90;;;;;;;10.15;100.00;95410.53;5010747;28;20270;-67
2023/05/09 01:29:47;;;;;;;1999.90;999.90;;;;;;;10.10;100.00;95400.06;5010377;28;20205;-68
2023/05/09 01:32:23;;;;;;;1999.90;999.90;;;;;;;10.08;100.00;95399.66;5010222;28;20208;-67
2023/05/09 01:34:51;;;;;;;1999.90;999.90;;;;;;;10.06;100.00;95419.16;5010378;28;20207;-67
2023/05/09 01:37:21;;;;;;;1999.90;999.90;;;;;;;10.01;100.00;95411.38;5010355;28;20252;-67
2023/05/09 01:39:50;;;;;;;1999.90;999.90;;;;;;;9.97;100.00;95399.72;5010570;28;20205;-67
2023/05/09 01:42:19;;;;;;;1999.90;999.90;;;;;;;9.96;100.00;95387.25;5010175;28;20212;-67
2023/05/09 01:44:46;;;;;;;1999.90;999.90;;;;;;;9.90;100.00;95380.66;5009758;28;20217;-67
2023/05/09 01:47:15;;;;;;;1999.90;999.90;;;;;;;9.86;100.00;95385.34;5009981;28;20204;-67
2023/05/09 01:49:41;;;;;;;1999.90;999.90;;;;;;;9.84;100.00;95362.38;5010113;28;20205;-67
2023/05/09 01:52:10;;;;;;;1999.90;999.90;;;;;;;9.78;100.00;95342.94;5009508;28;20246;-67
2023/05/09 01:54:37;;;;;;;1999.90;999.90;;;;;;;9.75;100.00;95332.84;5009984;28;20195;-67
2023/05/09 01:57:04;;;;;;;1999.90;999.90;;;;;;;9.70;100.00;95311.41;5009694;28;20193;-67
2023/05/09 01:59:33;;;;;;;1999.90;999.90;;;;;;;9.65;100.00;95289.25;5009713;28;20200;-67
2023/05/09 02:01:59;;;;;;;1999.90;999.90;;;;;;;9.63;100.00;95270.59;5010070;28;20171;-67
2023/05/09 02:04:27;;;;;;;1999.90;999.90;;;;;;;9.64;100.00;95266.69;5010205;28;20239;-67
2023/05/09 02:06:53;;;;;;;1999.90;999.90;;;;;;;9.63;100.00;95248.78;5009889;28;20202;-67
2023/05/09 02:09:19;;;;;;;1999.90;999.90;;;;;;;9.54;100.00;95243.00;5009562;28;20226;-67
2023/05/09 02:11:47;;;;;;;1999.90;999.90;;;;;;;9.51;100.00;95224.69;5009807;28;20200;-67
2023/05/09 02:14:13;;;;;;;1999.90;999.90;;;;;;;9.47;100.00;95207.59;5009613;28;20246;-67
2023/05/09 02:16:39;;;;;;;1999.90;999.90;;;;;;;9.47;100.00;95191.25;5009171;28;20196;-67
2023/05/09 02:19:05;;;;;;;1999.90;999.90;;;;;;;9.44;100.00;95172.97;5009297;28;20231;-67
2023/05/09 02:21:30;;;;;;;1999.90;999.90;;;;;;;9.34;100.00;95148.53;5009270;28;20200;-67
2023/05/09 02:23:56;;;;;;;1999.90;999.90;;;;;;;9.26;100.00;95104.22;5009772;28;20207;-67
2023/05/09 02:26:23;;;;;;;1999.90;999.90;;;;;;;9.27;100.00;95067.63;5009453;28;20208;-67
2023/05/09 02:28:49;;;;;;;1999.90;999.90;;;;;;;9.30;100.00;94996.00;5009096;28;20202;-65
2023/05/09 02:31:17;;;;;;;1999.90;999.90;;;;;;;9.26;100.00;94972.69;5008764;28;20203;-66
2023/05/09 02:33:45;;;;;;;1999.90;999.90;;;;;;;9.26;100.00;94956.34;5009365;28;20416;-66
2023/05/09 02:36:11;;;;;;;1999.90;999.90;;;;;;;9.21;100.00;94935.75;5009497;28;20209;-66
2023/05/09 02:38:37;;;;;;;1999.90;999.90;;;;;;;9.16;100.00;94908.97;5009461;28;20207;-67
2023/05/09 02:41:02;;;;;;;1999.90;999.90;;;;;;;9.14;100.00;94886.03;5008703;28;20230;-67
2023/05/09 02:43:27;;;;;;;1999.90;999.90;;;;;;;9.13;100.00;94849.84;5008835;28;20207;-66
2023/05/09 02:45:53;;;;;;;1999.90;999.90;;;;;;;9.10;100.00;94828.88;5008700;28;20216;-66
2023/05/09 02:48:18;;;;;;;1999.90;999.90;;;;;;;9.15;100.00;94803.88;5008745;28;20214;-66
2023/05/09 02:50:44;;;;;;;1999.90;999.90;;;;;;;9.12;100.00;94782.94;5008961;28;20198;-68
2023/05/09 02:53:10;;;;;;;1999.90;999.90;;;;;;;9.11;100.00;94634.31;5008734;28;20215;-67
2023/05/09 02:55:36;;;;;;;1999.90;999.90;;;;;;;9.06;100.00;94610.28;5008561;28;20214;-66
2023/05/09 02:58:01;;;;;;;1999.90;999.90;;;;;;;9.11;100.00;94596.19;5008627;28;20208;-67
2023/05/09 03:00:26;;;;;;;1999.90;999.90;;;;;;;9.11;100.00;94596.19;5009001;28;20180;-67
2023/05/09 03:02:52;;;;;;;1999.90;999.90;;;;;;;9.12;100.00;94580.63;5009076;28;20266;-66
2023/05/09 03:05:17;;;;;;;1999.90;999.90;;;;;;;9.11;100.00;94568.94;5008599;28;20199;-66
2023/05/09 03:07:43;;;;;;;1999.90;999.90;;;;;;;9.14;100.00;94556.47;5008402;28;20203;-66
2023/05/09 03:10:11;;;;;;;1999.90;999.90;;;;;;;9.13;100.00;94561.13;5008316;28;20207;-66
2023/05/09 03:12:37;;;;;;;1999.90;999.90;;;;;;;9.11;100.00;94547.16;5008395;28;20206;-66
2023/05/09 03:15:06;;;;;;;1999.90;999.90;;;;;;;9.09;100.00;94541.38;5008599;28;20209;-66
2023/05/09 03:17:31;;;;;;;1999.90;999.90;;;;;;;9.10;100.00;94529.28;5007991;28;20195;-66
2023/05/09 03:19:57;;;;;;;1999.90;999.90;;;;;;;9.12;100.00;94524.19;5008178;28;20201;-65
2023/05/09 03:22:22;;;;;;;1999.90;999.90;;;;;;;9.12;100.00;94509.81;5008831;28;20206;-65
2023/05/09 03:24:48;;;;;;;1999.90;999.90;;;;;;;9.09;100.00;94502.47;5008345;28;20210;-65
2023/05/09 03:27:13;;;;;;;1999.90;999.90;;;;;;;9.10;100.00;94496.59;5008566;28;20210;-65
2023/05/09 03:29:38;;;;;;;1999.90;999.90;;;;;;;9.10;100.00;94488.44;5007878;28;20205;-66
2023/05/09 03:32:04;;;;;;;1999.90;999.90;;;;;;;9.14;100.00;94474.78;5008872;28;20229;-68
2023/05/09 03:34:29;;;;;;;1999.90;999.90;;;;;;;9.14;100.00;94477.50;5008313;28;20230;-66
2023/05/09 03:36:56;;;;;;;1999.90;999.90;;;;;;;9.11;100.00;94470.91;5008059;28;20199;-66
2023/05/09 03:39:22;;;;;;;1999.90;999.90;;;;;;;9.12;100.00;94466.22;5008157;28;20199;-66
2023/05/09 03:41:48;;;;;;;1999.90;999.90;;;;;;;9.12;100.00;94467.00;5007476;28;20210;-67
2023/05/09 03:44:13;;;;;;;1999.90;999.90;;;;;;;9.13;100.00;94457.66;5007861;28;20235;-67
2023/05/09 03:46:38;;;;;;;1999.90;999.90;;;;;;;9.18;100.00;94451.72;5007862;28;20323;-65
2023/05/09 03:49:04;;;;;;;1999.90;999.90;;;;;;;9.12;100.00;94456.13;5007792;28;20199;-66
2023/05/09 03:51:29;;;;;;;1999.90;999.90;;;;;;;9.11;100.00;94465.44;5007825;28;20238;-66
2023/05/09 03:53:55;;;;;;;1999.90;999.90;;;;;;;9.09;100.00;94477.94;5007985;28;20215;-66
2023/05/09 03:56:21;;;;;;;1999.90;999.90;;;;;;;9.14;100.00;94480.97;5007444;28;20218;-66
2023/05/09 03:58:47;;;;;;;1999.90;999.90;;;;;;;9.05;100.00;94488.91;5007676;28;20267;-67
2023/05/09 04:01:12;;;;;;;1999.90;999.90;;;;;;;9.22;100.00;94487.06;5007626;28;20176;-67
2023/05/09 04:03:38;;;;;;;1999.90;999.90;;;;;;;9.30;100.00;94504.81;5008063;28;20229;-66
2023/05/09 04:06:04;;;;;;;1999.90;999.90;;;;;;;9.16;100.00;94530.34;5007940;28;20197;-66
2023/05/09 04:08:30;;;;;;;1999.90;999.90;;;;;;;9.04;100.00;94544.53;5007781;28;20207;-66
2023/05/09 04:10:56;;;;;;;1999.90;999.90;;;;;;;9.08;100.00;94548.00;5007535;28;20278;-67
2023/05/09 04:13:21;;;;;;;1999.90;999.90;;;;;;;9.02;100.00;94555.09;5007357;28;20219;-67
2023/05/09 04:15:46;;;;;;;1999.90;999.90;;;;;;;9.14;100.00;94561.91;5007494;28;20199;-67
2023/05/09 04:18:12;;;;;;;1999.90;999.90;;;;;;;9.30;100.00;94565.53;5007467;28;20273;-65
2023/05/09 04:20:37;;;;;;;1999.90;999.90;;;;;;;9.55;100.00;94587.66;5007532;28;20253;-68
2023/05/09 04:23:02;;;;;;;1999.90;999.90;;;;;;;9.95;100.00;94605.63;5007289;28;20203;-66
2023/05/09 04:25:29;;;;;;;1999.90;999.90;;;;;;;10.43;100.00;94631.63;5008190;28;20201;-68
2023/05/09 04:27:55;;;;;;;1999.90;999.90;;;;;;;10.76;100.00;94728.84;5008077;28;20207;-61
2023/05/09 04:30:21;;;;;;;1999.90;999.90;;;;;;;11.11;100.00;94886.63;5007574;28;20201;-66
2023/05/09 04:32:47;;;;;;;1999.90;999.90;;;;;;;11.49;100.00;95005.41;5007857;28;20299;-67
2023/05/09 04:35:13;;;;;;;1999.90;999.90;;;;;;;11.74;100.00;95134.31;5007631;28;20200;-66
2023/05/09 04:37:39;;;;;;;1999.90;999.90;;;;;;;12.15;100.00;95223.16;5007094;28;20203;-66
2023/05/09 04:40:06;;;;;;;1999.90;999.90;;;;;;;12.56;100.00;95296.75;5007120;28;20210;-66
2023/05/09 04:42:32;;;;;;;1999.90;999.90;;;;;;;13.13;100.00;95368.59;5007661;28;20198;-66
2023/05/09 04:44:58;;;;;;;1999.90;999.90;;;;;;;13.30;100.00;95423.09;5007133;28;20215;-67
2023/05/09 04:47:23;;;;;;;1999.90;999.90;;;;;;;13.46;100.00;95444.38;5007140;28;20205;-66
2023/05/09 04:49:48;;;;;;;1999.90;999.90;;;;;;;13.60;100.00;95452.34;5007273;28;20221;-66
2023/05/09 04:52:14;;;;;;;1999.90;999.90;;;;;;;13.77;100.00;95473.16;5007134;28;20206;-66
2023/05/09 04:54:39;;;;;;;1999.90;999.90;;;;;;;13.98;100.00;95480.25;5009005;28;20191;-66
2023/05/09 04:57:05;;;;;;;1999.90;999.90;;;;;;;13.70;100.00;95484.31;5010591;28;20230;-67
2023/05/09 04:59:31;;;;;;;1999.90;999.90;;;;;;;13.22;100.00;95483.97;5011160;28;20205;-68
2023/05/09 05:01:56;;;;;;;1999.90;999.90;;;;;;;13.44;100.00;95482.41;5011139;28;20183;-68
2023/05/09 05:04:22;;;;;;;1999.90;999.90;;;;;;;13.17;100.00;95484.47;5011116;28;20199;-68
2023/05/09 05:06:47;;;;;;;1999.90;999.90;;;;;;;12.94;100.00;95492.66;5010635;28;20238;-69
2023/05/09 05:09:13;;;;;;;1999.90;999.90;;;;;;;13.01;100.00;95481.59;5010623;28;20198;-68
2023/05/09 05:11:38;;;;;;;1999.90;999.90;;;;;;;13.08;100.00;95476.00;5010667;28;20217;-68
2023/05/09 05:14:03;;;;;;;1999.90;999.90;;;;;;;13.56;100.00;95479.06;5010439;28;20231;-68
2023/05/09 05:16:29;;;;;;;1999.90;999.90;;;;;;;13.64;100.00;95479.69;5010478;28;20258;-69
2023/05/09 05:18:54;;;;;;;1999.90;999.90;;;;;;;14.19;100.00;95491.56;5010370;28;20202;-68
2023/05/09 05:21:19;;;;;;;1999.90;999.90;;;;;;;14.74;100.00;95490.78;5010092;28;20191;-70
2023/05/09 05:23:45;;;;;;;1999.90;999.90;;;;;;;15.82;100.00;95493.63;5010293;28;20210;-67
2023/05/09 05:26:10;;;;;;;1999.90;999.90;;;;;;;16.01;100.00;95506.47;5010322;28;20219;-68
2023/05/09 05:28:35;;;;;;;1999.90;999.90;;;;;;;16.31;100.00;95508.00;5010238;28;20270;-67
2023/05/09 05:31:01;;;;;;;1999.90;999.90;;;;;;;15.56;100.00;95513.94;5010586;28;20214;-69
2023/05/09 05:33:26;;;;;;;1999.90;999.90;;;;;;;15.86;100.00;95521.06;5010294;28;20215;-66
2023/05/09 05:35:51;;;;;;;1999.90;999.90;;;;;;;16.14;100.00;95512.03;5010564;28;20230;-66
2023/05/09 05:38:17;;;;;;;1999.90;999.90;;;;;;;16.21;100.00;95509.84;5010333;28;20194;-66
2023/05/09 05:40:42;;;;;;;1999.90;999.90;;;;;;;17.13;100.00;95520.94;5010030;28;20206;-67
2023/05/09 05:43:07;;;;;;;1999.90;999.90;;;;;;;17.53;100.00;95525.56;5010423;28;20199;-67
2023/05/09 05:45:33;;;;;;;1999.90;999.90;;;;;;;17.28;100.00;95524.78;5009562;28;20214;-69
2023/05/09 05:47:58;;;;;;;1999.90;999.90;;;;;;;17.74;100.00;95513.78;5009819;28;20198;-69
2023/05/09 05:50:23;;;;;;;1999.90;999.90;;;;;;;18.10;100.00;95524.41;5009821;28;20206;-69
2023/05/09 05:52:49;;;;;;;1999.90;999.90;;;;;;;18.31;100.00;95521.66;5009858;28;20249;-70
2023/05/09 05:55:14;;;;;;;1999.90;999.90;;;;;;;18.40;100.00;95518.22;5009848;28;20198;-69
2023/05/09 05:57:39;;;;;;;1999.90;999.90;;;;;;;18.94;100.00;95515.78;5009507;28;20202;-68
2023/05/09 06:00:10;;;;;;;1999.90;999.90;;;;;;;18.67;100.00;95512.84;5010009;28;20198;-70
2023/05/09 06:02:35;;;;;;;1999.90;999.90;;;;;;;19.56;100.00;95516.50;5009607;28;20258;-67
2023/05/09 06:05:02;;;;;;;1999.90;999.90;;;;;;;19.51;100.00;95504.00;5009037;28;20194;-67
2023/05/09 06:07:28;;;;;;;1999.90;999.90;;;;;;;18.89;100.00;95508.03;5009228;28;20218;-69
2023/05/09 06:09:53;;;;;;;1999.90;999.90;;;;;;;18.26;100.00;95502.88;5009450;28;20203;-68
2023/05/09 06:12:18;;;;;;;1999.90;999.90;;;;;;;19.28;100.00;95501.78;5009479;28;20200;-69
2023/05/09 06:14:44;;;;;;;1999.90;999.90;;;;;;;19.44;100.00;95510.63;5009580;28;20206;-69
2023/05/09 06:17:09;;;;;;;1999.90;999.90;;;;;;;19.58;100.00;95498.19;5009318;28;20203;-71
2023/05/09 06:19:35;;;;;;;1999.90;999.90;;;;;;;20.03;100.00;95505.78;5009095;28;20195;-68
2023/05/09 06:22:01;;;;;;;1999.90;999.90;;;;;;;21.27;100.00;95492.16;5009153;28;20265;-68
2023/05/09 06:24:26;;;;;;;1999.90;999.90;;;;;;;21.00;100.00;95497.84;5009253;28;20199;-69
2023/05/09 06:26:52;;;;;;;1999.90;999.90;;;;;;;20.86;100.00;95489.34;5009027;28;20199;-67
2023/05/09 06:29:17;;;;;;;1999.90;999.90;;;;;;;18.90;100.00;95484.66;5009085;28;20195;-68
2023/05/09 06:31:42;;;;;;;1999.90;999.90;;;;;;;21.02;100.00;95481.47;5009010;28;20206;-69
2023/05/09 06:34:08;;;;;;;1999.90;999.90;;;;;;;21.07;100.00;95486.41;5008761;28;20215;-69
2023/05/09 06:36:34;;;;;;;1999.90;999.90;;;;;;;20.95;100.00;95492.16;5009322;28;20179;-70
2023/05/09 06:38:59;;;;;;;1999.90;999.90;;;;;;;21.92;97.03;95481.00;5009212;28;20258;-70
2023/05/09 06:41:25;;;;;;;1999.90;999.90;;;;;;;22.17;95.22;95480.50;5009130;28;20217;-71
2023/05/09 06:43:51;;;;;;;1999.90;999.90;;;;;;;22.56;97.80;95469.34;5008549;28;20282;-63
2023/05/09 06:46:16;;;;;;;1999.90;999.90;;;;;;;22.74;85.98;95472.72;5008484;28;20223;-62
2023/05/09 06:48:42;;;;;;;1999.90;999.90;;;;;;;22.52;95.46;95471.56;5008715;28;20187;-63
2023/05/09 06:51:08;;;;;;;1999.90;999.90;;;;;;;23.81;84.24;95475.41;5008772;28;20270;-69
2023/05/09 06:53:33;;;;;;;1999.90;999.90;;;;;;;23.65;81.64;95467.59;5008764;28;20257;-70
2023/05/09 06:55:58;;;;;;;1999.90;999.90;;;;;;;23.80;84.03;95473.13;5008978;28;20194;-76
2023/05/09 06:58:24;;;;;;;1999.90;999.90;;;;;;;23.44;85.06;95468.03;5008837;28;20269;-72
2023/05/09 07:00:50;;;;;;;1999.90;999.90;;;;;;;22.99;82.33;95472.16;5008144;28;20195;-78
2023/05/09 07:03:15;;;;;;;1999.90;999.90;;;;;;;24.26;79.72;95465.59;5008704;28;20205;-77
2023/05/09 07:05:41;;;;;;;1999.90;999.90;;;;;;;25.11;72.09;95465.47;5008807;28;20270;-70
2023/05/09 07:08:06;;;;;;;1999.90;999.90;;;;;;;24.61;73.68;95469.03;5008749;28;20174;-72
2023/05/09 07:10:32;;;;;;;1999.90;999.90;;;;;;;24.43;76.41;95469.34;5008710;28;20226;-72
2023/05/09 07:12:57;;;;;;;1999.90;999.90;;;;;;;24.42;77.91;95467.81;5008436;28;20210;-70
2023/05/09 07:15:23;;;;;;;1999.90;999.90;;;;;;;23.60;87.55;95470.31;5008598;28;20274;-69
2023/05/09 07:17:48;;;;;;;1999.90;999.90;;;;;;;22.68;94.35;95459.97;5008120;28;20199;-71
2023/05/09 07:20:13;;;;;;;1999.90;999.90;;;;;;;22.59;99.14;95460.03;5007968;28;20202;-73
2023/05/09 07:22:39;;;;;;;1999.90;999.90;;;;;;;22.26;100.00;95449.81;5008190;28;20198;-72
2023/05/09 07:25:07;;;;;;;1999.90;999.90;;;;;;;21.07;100.00;95447.50;5008250;28;20199;-70
2023/05/09 07:27:33;;;;;;;1999.90;999.90;;;;;;;21.24;100.00;95437.53;5008147;28;20194;-70
2023/05/09 07:29:59;;;;;;;1999.90;999.90;;;;;;;22.26;100.00;95438.66;5007892;28;20202;-69
2023/05/09 07:32:27;;;;;;;1999.90;999.90;;;;;;;23.03;100.00;95438.50;5007847;28;20198;-70
2023/05/09 07:34:53;;;;;;;1999.90;999.90;;;;;;;24.09;91.20;95433.94;5008132;28;20221;-72
2023/05/09 07:37:18;;;;;;;1999.90;999.90;;;;;;;23.78;88.71;95431.00;5007820;28;20191;-70
2023/05/09 07:39:45;;;;;;;1999.90;999.90;;;;;;;23.31;95.52;95431.38;5008552;28;20198;-70
2023/05/09 07:42:10;;;;;;;1999.90;999.90;;;;;;;23.10;97.76;95435.31;5008272;28;20203;-70
2023/05/09 07:44:35;;;;;;;1999.90;999.90;;;;;;;22.75;96.17;95435.28;5008039;28;20246;-70
2023/05/09 07:47:01;;;;;;;1999.90;999.90;;;;;;;23.10;97.63;95427.75;5007927;28;20206;-73
2023/05/09 07:49:26;;;;;;;1999.90;999.90;;;;;;;23.64;94.26;95426.25;5007695;28;20205;-70
2023/05/09 07:51:52;;;;;;;1999.90;999.90;;;;;;;23.78;94.25;95417.06;5007880;28;20241;-72
2023/05/09 07:54:17;;;;;;;1999.90;999.90;;;;;;;24.80;90.51;95411.59;5007520;28;20253;-73
2023/05/09 07:56:42;;;;;;;1999.90;999.90;;;;;;;25.55;80.75;95406.28;5007508;28;20234;-72
2023/05/09 07:59:08;;;;;;;1999.90;999.90;;;;;;;25.13;81.33;95411.84;5007408;28;20199;-79
2023/05/09 08:01:33;;;;;;;1999.90;999.90;;;;;;;24.63;84.56;95411.44;5007752;28;20270;-75
2023/05/09 08:03:59;;;;;;;1999.90;999.90;;;;;;;24.45;89.66;95405.38;5007685;28;20267;-75
2023/05/09 08:06:25;;;;;;;1999.90;999.90;;;;;;;23.78;95.59;95409.44;5007888;28;20191;-76
2023/05/09 08:08:51;;;;;;;1999.90;999.90;;;;;;;22.88;100.00;95401.53;5008037;28;20182;-76
2023/05/09 08:11:16;;;;;;;1999.90;999.90;;;;;;;23.21;97.81;95396.47;5007485;28;20233;-74
2023/05/09 08:13:42;;;;;;;1999.90;999.90;;;;;;;22.90;100.00;95390.69;5007978;28;20281;-74
2023/05/09 08:16:07;;;;;;;1999.90;999.90;;;;;;;22.94;100.00;95388.47;5007720;28;20199;-71
2023/05/09 08:18:32;;;;;;;1999.90;999.90;;;;;;;23.50;100.00;95376.88;5007679;28;20195;-73
2023/05/09 08:20:58;;;;;;;1999.90;999.90;;;;;;;24.14;95.65;95383.75;5007346;28;20202;-75
2023/05/09 08:23:25;;;;;;;1999.90;999.90;;;;;;;24.25;91.29;95374.72;5007338;28;20194;-74
2023/05/09 08:25:53;;;;;;;1999.90;999.90;;;;;;;24.82;89.06;95379.09;5007299;28;20199;-72
2023/05/09 08:28:20;;;;;;;1999.90;999.90;;;;;;;26.45;78.12;95376.09;5007329;28;20266;-74
2023/05/09 08:30:46;;;;;;;1999.90;999.90;;;;;;;27.31;70.36;95384.28;5011530;28;20198;-77
2023/05/09 08:33:12;;;;;;;1999.90;999.90;;;;;;;28.05;67.91;95373.84;5011158;28;20206;-77
2023/05/09 08:35:37;;;;;;;1999.90;999.90;;;;;;;26.99;74.02;95373.84;5011226;28;20206;-75
2023/05/09 08:38:02;;;;;;;1999.90;999.90;;;;;;;28.00;74.55;95369.00;5011057;28;20175;-76
2023/05/09 08:40:28;;;;;;;1999.90;999.90;;;;;;;28.75;69.11;95361.16;5011548;28;20195;-77
2023/05/09 08:42:54;;;;;;;1999.90;999.90;;;;;;;28.98;63.43;95362.53;5011519;28;20202;-81
2023/05/09 08:45:26;;;;;;;1999.90;999.90;;;;;;;28.80;59.89;95363.19;5010633;28;20302;-79
2023/05/09 08:47:52;;;;;;;1999.90;999.90;;;;;;;28.59;62.56;95359.25;5011432;28;20266;-76
2023/05/09 08:50:19;;;;;;;1999.90;999.90;;;;;;;27.83;64.92;95357.09;5010900;28;20221;-76
2023/05/09 08:52:44;;;;;;;1999.90;999.90;;;;;;;28.12;68.10;95348.00;5010868;28;20207;-77
2023/05/09 08:55:11;;;;;;;1999.90;999.90;;;;;;;28.88;64.37;95347.25;5011292;28;20195;-76
2023/05/09 08:57:36;;;;;;;1999.90;999.90;;;;;;;28.85;64.58;95342.69;5010994;28;20194;-78
2023/05/09 09:00:05;;;;;;;1999.90;999.90;;;;;;;29.49;57.92;95344.66;5010884;28;20213;-76
2023/05/09 09:02:32;;;;;;;1999.90;999.90;;;;;;;27.77;63.81;95336.69;5010832;28;20309;-76
2023/05/09 09:04:57;;;;;;;1999.90;999.90;;;;;;;27.51;66.17;95336.28;5010701;28;20208;-75
2023/05/09 09:07:26;;;;;;;1999.90;999.90;;;;;;;27.09;67.85;95328.19;5010787;28;20171;-78
2023/05/09 09:09:53;;;;;;;1999.90;999.90;;;;;;;26.99;69.93;95324.09;5010589;28;20233;-78
2023/05/09 09:12:22;;;;;;;1999.90;999.90;;;;;;;27.98;64.44;95320.25;5010690;28;20195;-77
2023/05/09 09:14:51;;;;;;;1999.90;999.90;;;;;;;26.27;72.77;95320.53;5010716;28;20282;-80
2023/05/09 09:17:20;;;;;;;1999.90;999.90;;;;;;;25.71;75.51;95318.84;5010749;28;20191;-79
2023/05/09 09:19:48;;;;;;;1999.90;999.90;;;;;;;26.90;73.17;95310.38;5010779;28;20191;-81
2023/05/09 09:22:17;;;;;;;1999.90;999.90;;;;;;;26.50;74.57;95316.47;5010526;28;20190;-75
2023/05/09 09:24:42;;;;;;;1999.90;999.90;;;;;;;25.97;79.11;95308.28;5010441;28;20226;-79
2023/05/09 09:27:08;;;;;;;1999.90;999.90;;;;;;;27.43;71.76;95307.19;5010331;28;20198;-80
2023/05/09 09:29:33;;;;;;;1999.90;999.90;;;;;;;28.20;67.00;95301.25;5010448;28;20195;-81
2023/05/09 09:32:04;;;;;;;1999.90;999.90;;;;;;;28.57;67.98;95300.72;5010383;28;20219;-84
2023/05/09 09:34:30;;;;;;;1999.90;999.90;;;;;;;29.26;63.61;95298.31;5010463;28;20211;-81
2023/05/09 09:36:55;;;;;;;1999.90;999.90;;;;;;;28.09;64.66;95300.53;5010561;28;20187;-85
2023/05/09 09:39:21;;;;;;;1999.90;999.90;;;;;;;27.59;67.41;95292.34;5010589;28;20222;-83
2023/05/09 09:41:46;;;;;;;1999.90;999.90;;;;;;;27.62;68.16;95284.94;5009953;28;20191;-79
2023/05/09 09:44:22;;;;;;;1999.90;999.90;;;;;;;28.47;63.95;95270.66;5009903;28;20207;-79
2023/05/09 09:46:53;;;;;;;1999.90;999.90;;;;;;;28.55;64.49;95263.94;5010259;28;20200;-81
2023/05/09 09:49:23;;;;;;;1999.90;999.90;;;;;;;29.19;61.26;95265.13;5009904;28;20217;-78
2023/05/09 09:51:54;;;;;;;1999.90;999.90;;;;;;;28.93;60.71;95276.88;5009887;28;20191;-77
2023/05/09 09:54:20;;;;;;;1999.90;999.90;;;;;;;28.76;63.79;95275.53;5009964;28;20207;-78
2023/05/09 09:56:47;;;;;;;1999.90;999.90;;;;;;;28.73;65.92;95257.63;5009570;28;20206;-76
2023/05/09 09:59:15;;;;;;;1999.90;999.90;;;;;;;28.55;64.25;95257.56;5009856;28;20239;-77
2023/05/09 10:02:07;;;;;;;1999.90;999.90;;;;;;;26.06;72.26;95259.66;5010110;28;20258;-76
2023/05/09 10:04:34;;;;;;;1999.90;999.90;;;;;;;27.04;74.70;95244.81;5006783;28;20214;-77
2023/05/09 10:07:02;;;;;;;1999.90;999.90;;;;;;;27.86;68.28;95243.72;5009589;28;20270;-81
2023/05/09 10:09:28;;;;;;;1999.90;999.90;;;;;;;28.65;65.37;95239.06;5009687;28;20202;-80
2023/05/09 10:11:55;;;;;;;1999.90;999.90;;;;;;;28.60;65.91;95237.06;5010079;28;20191;-81
2023/05/09 10:14:23;;;;;;;1999.90;999.90;;;;;;;28.24;64.81;95231.47;5009858;28;20207;-80
2023/05/09 10:16:50;;;;;;;1999.90;999.90;;;;;;;27.96;69.63;95233.72;5009323;28;20191;-80
2023/05/09 10:19:20;;;;;;;1999.90;999.90;;;;;;;25.61;81.88;95230.81;5009970;28;20191;-85
2023/05/09 10:21:54;;;;;;;1999.90;999.90;;;;;;;27.65;70.88;95217.28;5009844;28;20199;-80
2023/05/09 10:24:32;;;;;;;1999.90;999.90;;;;;;;27.23;73.10;95220.56;5009412;28;20195;-80
2023/05/09 10:27:04;;;;;;;1999.90;999.90;;;;;;;27.78;72.18;95209.03;5009462;28;20199;-78
2023/05/09 10:29:34;;;;;;;1999.90;999.90;;;;;;;26.34;77.13;95210.78;5009648;28;20218;-88
2023/05/09 10:32:08;;;;;;;1999.90;999.90;;;;;;;27.56;71.25;95192.34;5009173;28;20202;-77
2023/05/09 10:34:39;;;;;;;1999.90;999.90;;;;;;;27.37;71.23;95207.47;5008961;28;20203;-75
2023/05/09 10:37:05;;;;;;;1999.90;999.90;;;;;;;27.11;69.45;95207.84;5009285;28;20225;-81
2023/05/09 10:39:31;;;;;;;1999.90;999.90;;;;;;;25.60;77.60;95190.09;5009325;28;20317;-84
2023/05/09 10:41:57;;;;;;;1999.90;999.90;;;;;;;26.99;73.66;95200.72;5009384;28;20182;-80
2023/05/09 10:44:24;;;;;;;1999.90;999.90;;;;;;;26.56;79.18;95196.75;5009708;28;20227;-81
2023/05/09 10:46:50;;;;;;;1999.90;999.90;;;;;;;26.46;79.00;95186.31;5009372;28;20249;-79
2023/05/09 10:49:16;;;;;;;1999.90;999.90;;;;;;;25.77;80.89;95178.91;5008731;28;20199;-77
2023/05/09 10:51:42;;;;;;;1999.90;999.90;;;;;;;26.97;74.96;95175.25;5007982;28;20202;-74